sensor_id;sensor_type;location;lat;lon;timestamp;P1;P2;P0
54305;PMS7003;66145;45.188;5.712;2023-03-05T00:00:34;32.00;30.33;20.00
54305;PMS7003;66145;45.188;5.712;2023-03-05T00:02:59;39.67;33.00;20.00
54305;PMS7003;66145;45.188;5.712;2023-03-05T00:05:25;33.67;29.67;20.00
54305;PMS7003;66145;45.188;5.712;2023-03-05T00:07:50;29.67;28.33;20.00
54305;PMS7003;66145;45.188;5.712;2023-03-05T00:10:15;31.67;30.00;20.00
54305;PMS7003;66145;45.188;5.712;2023-03-05T00:12:41;31.33;30.00;20.33
54305;PMS7003;66145;45.188;5.712;2023-03-05T00:15:07;26.67;26.67;19.00
54305;PMS7003;66145;45.188;5.712;2023-03-05T00:17:33;33.50;29.00;19.75
54305;PMS7003;66145;45.188;5.712;2023-03-05T00:19:58;32.00;30.00;19.67
54305;PMS7003;66145;45.188;5.712;2023-03-05T00:22:24;34.33;31.67;20.67
54305;PMS7003;66145;45.188;5.712;2023-03-05T00:24:49;35.00;29.67;19.00
54305;PMS7003;66145;45.188;5.712;2023-03-05T00:27:15;25.67;25.67;19.00
54305;PMS7003;66145;45.188;5.712;2023-03-05T00:29:41;31.33;30.67;19.67
54305;PMS7003;66145;45.188;5.712;2023-03-05T00:32:06;31.33;27.67;19.00
54305;PMS7003;66145;45.188;5.712;2023-03-05T00:34:31;29.33;28.00;19.00
54305;PMS7003;66145;45.188;5.712;2023-03-05T00:36:57;35.67;33.00;21.33
54305;PMS7003;66145;45.188;5.712;2023-03-05T00:39:22;32.00;30.67;20.33
54305;PMS7003;66145;45.188;5.712;2023-03-05T00:41:48;31.67;29.67;20.00
54305;PMS7003;66145;45.188;5.712;2023-03-05T00:44:13;25.33;23.00;16.33
54305;PMS7003;66145;45.188;5.712;2023-03-05T00:46:39;32.00;30.33;19.00
54305;PMS7003;66145;45.188;5.712;2023-03-05T00:49:04;36.67;33.00;20.67
54305;PMS7003;66145;45.188;5.712;2023-03-05T00:51:30;29.00;28.00;18.00
54305;PMS7003;66145;45.188;5.712;2023-03-05T00:53:55;30.67;30.33;20.33
54305;PMS7003;66145;45.188;5.712;2023-03-05T00:56:21;30.33;28.67;19.67
54305;PMS7003;66145;45.188;5.712;2023-03-05T00:58:47;31.25;30.00;19.00
54305;PMS7003;66145;45.188;5.712;2023-03-05T01:01:12;28.00;27.00;19.00
54305;PMS7003;66145;45.188;5.712;2023-03-05T01:03:39;29.00;26.75;18.25
54305;PMS7003;66145;45.188;5.712;2023-03-05T01:06:06;28.33;28.33;19.00
54305;PMS7003;66145;45.188;5.712;2023-03-05T01:08:34;33.25;29.75;18.75
54305;PMS7003;66145;45.188;5.712;2023-03-05T01:11:00;26.50;24.50;16.00
54305;PMS7003;66145;45.188;5.712;2023-03-05T01:13:27;25.50;25.50;17.50
54305;PMS7003;66145;45.188;5.712;2023-03-05T01:15:52;26.00;26.00;17.00
54305;PMS7003;66145;45.188;5.712;2023-03-05T01:18:17;31.67;28.67;20.00
54305;PMS7003;66145;45.188;5.712;2023-03-05T01:20:44;26.75;24.75;18.00
54305;PMS7003;66145;45.188;5.712;2023-03-05T01:23:09;25.33;25.33;17.67
54305;PMS7003;66145;45.188;5.712;2023-03-05T01:25:35;25.33;24.33;16.33
54305;PMS7003;66145;45.188;5.712;2023-03-05T01:28:00;27.67;26.00;17.00
54305;PMS7003;66145;45.188;5.712;2023-03-05T01:30:26;26.25;25.75;17.25
54305;PMS7003;66145;45.188;5.712;2023-03-05T01:32:52;22.33;22.33;17.00
54305;PMS7003;66145;45.188;5.712;2023-03-05T01:35:20;29.00;25.00;17.75
54305;PMS7003;66145;45.188;5.712;2023-03-05T01:37:47;27.00;27.00;18.75
54305;PMS7003;66145;45.188;5.712;2023-03-05T01:40:13;23.33;21.33;14.33
54305;PMS7003;66145;45.188;5.712;2023-03-05T01:42:45;26.00;25.25;17.00
54305;PMS7003;66145;45.188;5.712;2023-03-05T01:45:13;26.50;26.25;17.25
54305;PMS7003;66145;45.188;5.712;2023-03-05T01:47:40;25.50;24.25;16.50
54305;PMS7003;66145;45.188;5.712;2023-03-05T01:50:07;29.67;26.00;16.67
54305;PMS7003;66145;45.188;5.712;2023-03-05T01:52:36;27.50;24.25;16.50
54305;PMS7003;66145;45.188;5.712;2023-03-05T01:55:05;26.25;25.50;16.25
54305;PMS7003;66145;45.188;5.712;2023-03-05T01:57:35;22.75;19.50;11.75
54305;PMS7003;66145;45.188;5.712;2023-03-05T02:00:30;23.25;21.25;15.50
54305;PMS7003;66145;45.188;5.712;2023-03-05T02:03:00;23.00;23.00;16.25
54305;PMS7003;66145;45.188;5.712;2023-03-05T02:05:30;23.25;21.75;14.00
54305;PMS7003;66145;45.188;5.712;2023-03-05T02:07:59;22.75;21.25;14.75
54305;PMS7003;66145;45.188;5.712;2023-03-05T02:10:35;19.75;19.75;15.25
54305;PMS7003;66145;45.188;5.712;2023-03-05T02:13:05;26.00;23.00;16.25
54305;PMS7003;66145;45.188;5.712;2023-03-05T02:15:36;21.00;21.00;13.75
54305;PMS7003;66145;45.188;5.712;2023-03-05T02:18:02;21.75;21.75;15.00
54305;PMS7003;66145;45.188;5.712;2023-03-05T02:20:30;21.00;19.75;13.00
54305;PMS7003;66145;45.188;5.712;2023-03-05T02:23:08;26.25;24.75;16.25
54305;PMS7003;66145;45.188;5.712;2023-03-05T02:25:33;23.67;22.33;15.00
54305;PMS7003;66145;45.188;5.712;2023-03-05T02:30:46;23.50;23.50;15.00
54305;PMS7003;66145;45.188;5.712;2023-03-05T02:33:12;25.00;23.33;14.00
54305;PMS7003;66145;45.188;5.712;2023-03-05T02:35:39;25.00;22.00;14.00
54305;PMS7003;66145;45.188;5.712;2023-03-05T02:38:04;20.67;20.67;14.67
54305;PMS7003;66145;45.188;5.712;2023-03-05T02:40:30;21.33;19.33;13.33
54305;PMS7003;66145;45.188;5.712;2023-03-05T02:42:55;21.00;21.00;14.67
54305;PMS7003;66145;45.188;5.712;2023-03-05T02:45:21;20.00;20.00;13.00
54305;PMS7003;66145;45.188;5.712;2023-03-05T02:47:46;22.00;19.67;13.33
54305;PMS7003;66145;45.188;5.712;2023-03-05T02:50:12;20.33;19.33;13.33
54305;PMS7003;66145;45.188;5.712;2023-03-05T02:52:37;21.00;21.00;14.67
54305;PMS7003;66145;45.188;5.712;2023-03-05T02:55:03;19.67;18.00;12.00
54305;PMS7003;66145;45.188;5.712;2023-03-05T02:57:29;19.67;18.33;13.00
54305;PMS7003;66145;45.188;5.712;2023-03-05T02:59:54;20.67;20.67;13.67
54305;PMS7003;66145;45.188;5.712;2023-03-05T03:02:20;20.33;18.00;13.00
54305;PMS7003;66145;45.188;5.712;2023-03-05T03:04:45;19.00;18.00;13.33
54305;PMS7003;66145;45.188;5.712;2023-03-05T03:07:11;19.00;17.33;13.33
54305;PMS7003;66145;45.188;5.712;2023-03-05T03:09:37;16.25;16.25;11.25
54305;PMS7003;66145;45.188;5.712;2023-03-05T03:12:03;19.33;19.00;13.00
54305;PMS7003;66145;45.188;5.712;2023-03-05T03:14:30;17.25;17.25;11.75
54305;PMS7003;66145;45.188;5.712;2023-03-05T03:17:03;18.25;18.25;12.75
54305;PMS7003;66145;45.188;5.712;2023-03-05T03:19:39;18.25;15.50;9.75
54305;PMS7003;66145;45.188;5.712;2023-03-05T03:22:06;17.25;17.25;11.50
54305;PMS7003;66145;45.188;5.712;2023-03-05T03:24:33;17.25;17.25;12.25
54305;PMS7003;66145;45.188;5.712;2023-03-05T03:27:00;16.25;16.25;11.00
54305;PMS7003;66145;45.188;5.712;2023-03-05T03:29:26;17.25;16.00;10.00
54305;PMS7003;66145;45.188;5.712;2023-03-05T03:31:52;15.50;15.50;11.75
54305;PMS7003;66145;45.188;5.712;2023-03-05T03:34:18;19.67;18.00;13.00
54305;PMS7003;66145;45.188;5.712;2023-03-05T03:36:44;15.75;15.75;10.00
54305;PMS7003;66145;45.188;5.712;2023-03-05T03:39:11;16.75;15.75;10.75
54305;PMS7003;66145;45.188;5.712;2023-03-05T03:41:42;16.25;16.25;12.25
54305;PMS7003;66145;45.188;5.712;2023-03-05T03:44:10;17.00;16.25;10.00
54305;PMS7003;66145;45.188;5.712;2023-03-05T03:46:37;15.25;15.25;11.50
54305;PMS7003;66145;45.188;5.712;2023-03-05T03:49:03;15.75;15.00;11.25
54305;PMS7003;66145;45.188;5.712;2023-03-05T03:51:30;14.50;14.50;9.25
54305;PMS7003;66145;45.188;5.712;2023-03-05T03:53:55;17.33;15.67;11.00
54305;PMS7003;66145;45.188;5.712;2023-03-05T03:56:21;19.33;18.00;12.00
54305;PMS7003;66145;45.188;5.712;2023-03-05T03:58:50;15.67;15.67;10.67
54305;PMS7003;66145;45.188;5.712;2023-03-05T04:01:19;17.50;17.50;10.75
54305;PMS7003;66145;45.188;5.712;2023-03-05T04:03:45;16.50;14.50;8.75
54305;PMS7003;66145;45.188;5.712;2023-03-05T04:06:11;16.00;16.00;10.00
54305;PMS7003;66145;45.188;5.712;2023-03-05T04:08:36;14.00;14.00;9.33
54305;PMS7003;66145;45.188;5.712;2023-03-05T04:11:02;14.67;12.33;9.33
54305;PMS7003;66145;45.188;5.712;2023-03-05T04:13:27;14.67;13.67;9.67
54305;PMS7003;66145;45.188;5.712;2023-03-05T04:15:53;17.00;15.00;10.00
54305;PMS7003;66145;45.188;5.712;2023-03-05T04:18:19;18.67;18.00;11.00
54305;PMS7003;66145;45.188;5.712;2023-03-05T04:20:44;15.00;13.00;10.00
54305;PMS7003;66145;45.188;5.712;2023-03-05T04:23:10;14.00;12.33;8.33
54305;PMS7003;66145;45.188;5.712;2023-03-05T04:25:35;14.67;14.67;10.00
54305;PMS7003;66145;45.188;5.712;2023-03-05T04:28:01;15.00;14.67;9.33
54305;PMS7003;66145;45.188;5.712;2023-03-05T04:30:26;16.33;15.33;9.00
54305;PMS7003;66145;45.188;5.712;2023-03-05T04:32:51;15.67;15.67;10.67
54305;PMS7003;66145;45.188;5.712;2023-03-05T04:35:17;14.67;12.33;8.00
54305;PMS7003;66145;45.188;5.712;2023-03-05T04:37:43;18.67;16.33;10.00
54305;PMS7003;66145;45.188;5.712;2023-03-05T04:40:08;19.33;16.00;11.00
54305;PMS7003;66145;45.188;5.712;2023-03-05T04:42:34;13.25;13.25;9.75
54305;PMS7003;66145;45.188;5.712;2023-03-05T04:44:59;18.67;15.00;10.00
54305;PMS7003;66145;45.188;5.712;2023-03-05T04:47:25;18.33;16.67;11.00
54305;PMS7003;66145;45.188;5.712;2023-03-05T04:49:50;17.33;16.67;10.00
54305;PMS7003;66145;45.188;5.712;2023-03-05T04:52:15;16.00;16.00;10.67
54305;PMS7003;66145;45.188;5.712;2023-03-05T04:54:42;18.00;14.33;9.33
54305;PMS7003;66145;45.188;5.712;2023-03-05T04:57:08;17.75;15.25;9.50
54305;PMS7003;66145;45.188;5.712;2023-03-05T04:59:35;15.33;15.33;10.33
54305;PMS7003;66145;45.188;5.712;2023-03-05T05:02:04;15.75;15.75;10.75
54305;PMS7003;66145;45.188;5.712;2023-03-05T05:04:29;14.00;14.00;9.75
54305;PMS7003;66145;45.188;5.712;2023-03-05T05:06:55;15.50;14.50;10.00
54305;PMS7003;66145;45.188;5.712;2023-03-05T05:09:21;16.67;15.33;11.00
54305;PMS7003;66145;45.188;5.712;2023-03-05T05:11:47;18.75;15.75;12.00
54305;PMS7003;66145;45.188;5.712;2023-03-05T05:14:13;17.33;16.00;11.67
54305;PMS7003;66145;45.188;5.712;2023-03-05T05:16:38;16.00;15.00;10.00
54305;PMS7003;66145;45.188;5.712;2023-03-05T05:19:03;19.33;18.67;11.00
54305;PMS7003;66145;45.188;5.712;2023-03-05T05:21:29;17.00;14.67;10.67
54305;PMS7003;66145;45.188;5.712;2023-03-05T05:23:54;16.00;16.00;10.00
54305;PMS7003;66145;45.188;5.712;2023-03-05T05:26:20;19.33;15.67;10.67
54305;PMS7003;66145;45.188;5.712;2023-03-05T05:28:45;16.33;15.67;9.00
54305;PMS7003;66145;45.188;5.712;2023-03-05T05:31:12;18.00;16.00;11.00
54305;PMS7003;66145;45.188;5.712;2023-03-05T05:33:38;12.50;12.50;9.00
54305;PMS7003;66145;45.188;5.712;2023-03-05T05:36:04;13.00;13.00;9.00
54305;PMS7003;66145;45.188;5.712;2023-03-05T05:38:31;15.25;14.75;10.00
54305;PMS7003;66145;45.188;5.712;2023-03-05T05:41:08;13.00;13.00;9.00
54305;PMS7003;66145;45.188;5.712;2023-03-05T05:43:38;14.25;14.25;10.25
54305;PMS7003;66145;45.188;5.712;2023-03-05T05:46:06;15.25;14.75;10.00
54305;PMS7003;66145;45.188;5.712;2023-03-05T05:48:39;14.75;13.75;9.00
54305;PMS7003;66145;45.188;5.712;2023-03-05T05:51:08;14.00;13.67;10.00
54305;PMS7003;66145;45.188;5.712;2023-03-05T05:53:36;15.00;14.00;10.00
54305;PMS7003;66145;45.188;5.712;2023-03-05T05:56:05;16.67;15.67;10.00
54305;PMS7003;66145;45.188;5.712;2023-03-05T05:58:32;16.00;16.00;10.75
54305;PMS7003;66145;45.188;5.712;2023-03-05T06:00:57;14.67;14.00;9.00
54305;PMS7003;66145;45.188;5.712;2023-03-05T06:03:23;14.67;14.00;10.00
54305;PMS7003;66145;45.188;5.712;2023-03-05T06:05:48;17.67;16.67;9.00
54305;PMS7003;66145;45.188;5.712;2023-03-05T06:08:15;15.25;14.00;10.00
54305;PMS7003;66145;45.188;5.712;2023-03-05T06:10:41;15.67;15.67;11.33
54305;PMS7003;66145;45.188;5.712;2023-03-05T06:13:06;16.00;15.67;10.67
54305;PMS7003;66145;45.188;5.712;2023-03-05T06:15:31;18.33;16.33;11.00
54305;PMS7003;66145;45.188;5.712;2023-03-05T06:17:57;15.67;15.67;10.67
54305;PMS7003;66145;45.188;5.712;2023-03-05T06:20:24;15.25;14.25;9.75
54305;PMS7003;66145;45.188;5.712;2023-03-05T06:22:50;19.33;17.33;10.67
54305;PMS7003;66145;45.188;5.712;2023-03-05T06:25:15;17.33;15.00;10.00
54305;PMS7003;66145;45.188;5.712;2023-03-05T06:27:41;16.67;16.00;10.33
54305;PMS7003;66145;45.188;5.712;2023-03-05T06:30:06;12.00;12.00;8.67
54305;PMS7003;66145;45.188;5.712;2023-03-05T06:32:32;15.50;13.75;9.50
54305;PMS7003;66145;45.188;5.712;2023-03-05T06:34:57;16.33;16.33;10.67
54305;PMS7003;66145;45.188;5.712;2023-03-05T06:37:23;14.00;14.00;9.33
54305;PMS7003;66145;45.188;5.712;2023-03-05T06:39:48;16.00;16.00;10.67
54305;PMS7003;66145;45.188;5.712;2023-03-05T06:42:13;18.00;17.00;10.33
54305;PMS7003;66145;45.188;5.712;2023-03-05T06:44:41;14.75;14.75;10.25
54305;PMS7003;66145;45.188;5.712;2023-03-05T06:47:07;15.00;14.00;8.67
54305;PMS7003;66145;45.188;5.712;2023-03-05T06:49:34;15.75;15.50;8.75
54305;PMS7003;66145;45.188;5.712;2023-03-05T06:52:01;16.50;16.50;10.50
54305;PMS7003;66145;45.188;5.712;2023-03-05T06:54:28;17.75;16.50;11.00
54305;PMS7003;66145;45.188;5.712;2023-03-05T06:56:53;15.33;15.00;10.00
54305;PMS7003;66145;45.188;5.712;2023-03-05T06:59:19;15.33;15.33;8.67
54305;PMS7003;66145;45.188;5.712;2023-03-05T07:01:45;15.50;14.25;8.75
54305;PMS7003;66145;45.188;5.712;2023-03-05T07:04:11;20.33;18.67;11.00
54305;PMS7003;66145;45.188;5.712;2023-03-05T07:06:37;17.50;16.25;11.25
54305;PMS7003;66145;45.188;5.712;2023-03-05T07:09:05;15.25;15.25;10.25
54305;PMS7003;66145;45.188;5.712;2023-03-05T07:11:31;16.75;15.25;10.00
54305;PMS7003;66145;45.188;5.712;2023-03-05T07:13:58;19.00;17.00;11.00
54305;PMS7003;66145;45.188;5.712;2023-03-05T07:16:24;18.33;16.00;8.33
54305;PMS7003;66145;45.188;5.712;2023-03-05T07:18:51;14.75;14.00;9.75
54305;PMS7003;66145;45.188;5.712;2023-03-05T07:21:19;11.75;11.75;5.25
54305;PMS7003;66145;45.188;5.712;2023-03-05T07:23:46;17.00;16.25;9.25
54305;PMS7003;66145;45.188;5.712;2023-03-05T07:26:12;18.67;18.67;10.67
54305;PMS7003;66145;45.188;5.712;2023-03-05T07:28:37;14.67;14.67;9.00
54305;PMS7003;66145;45.188;5.712;2023-03-05T07:31:06;14.00;13.00;10.00
54305;PMS7003;66145;45.188;5.712;2023-03-05T07:33:33;16.75;12.00;6.25
54305;PMS7003;66145;45.188;5.712;2023-03-05T07:36:01;17.00;16.50;11.00
54305;PMS7003;66145;45.188;5.712;2023-03-05T07:38:28;18.25;18.25;11.00
54305;PMS7003;66145;45.188;5.712;2023-03-05T07:40:54;17.50;15.00;10.00
54305;PMS7003;66145;45.188;5.712;2023-03-05T07:43:20;16.00;16.00;12.00
54305;PMS7003;66145;45.188;5.712;2023-03-05T07:45:45;19.33;19.00;12.00
54305;PMS7003;66145;45.188;5.712;2023-03-05T07:48:11;15.00;15.00;10.00
54305;PMS7003;66145;45.188;5.712;2023-03-05T07:50:39;16.50;15.25;10.00
54305;PMS7003;66145;45.188;5.712;2023-03-05T07:53:05;15.00;15.00;10.67
54305;PMS7003;66145;45.188;5.712;2023-03-05T07:55:31;15.33;15.33;11.00
54305;PMS7003;66145;45.188;5.712;2023-03-05T07:57:56;19.33;17.33;10.67
54305;PMS7003;66145;45.188;5.712;2023-03-05T08:00:22;19.33;19.33;14.00
54305;PMS7003;66145;45.188;5.712;2023-03-05T08:02:47;19.00;19.00;12.33
54305;PMS7003;66145;45.188;5.712;2023-03-05T08:05:14;24.75;23.25;15.00
54305;PMS7003;66145;45.188;5.712;2023-03-05T08:07:39;24.00;21.00;14.33
54305;PMS7003;66145;45.188;5.712;2023-03-05T08:10:05;20.00;20.00;13.67
54305;PMS7003;66145;45.188;5.712;2023-03-05T08:12:30;21.75;21.00;13.25
54305;PMS7003;66145;45.188;5.712;2023-03-05T08:14:56;20.67;20.67;14.00
54305;PMS7003;66145;45.188;5.712;2023-03-05T08:17:21;25.33;22.33;14.33
54305;PMS7003;66145;45.188;5.712;2023-03-05T08:19:47;23.33;22.33;13.00
54305;PMS7003;66145;45.188;5.712;2023-03-05T08:22:12;21.00;21.00;13.00
54305;PMS7003;66145;45.188;5.712;2023-03-05T08:24:40;22.50;22.00;14.50
54305;PMS7003;66145;45.188;5.712;2023-03-05T08:27:06;23.25;20.00;12.50
54305;PMS7003;66145;45.188;5.712;2023-03-05T08:29:31;26.67;22.67;15.33
54305;PMS7003;66145;45.188;5.712;2023-03-05T08:31:56;23.33;22.00;12.67
54305;PMS7003;66145;45.188;5.712;2023-03-05T08:34:22;24.00;22.33;14.67
54305;PMS7003;66145;45.188;5.712;2023-03-05T08:36:47;23.33;22.00;15.00
54305;PMS7003;66145;45.188;5.712;2023-03-05T08:39:13;22.33;22.00;14.00
54305;PMS7003;66145;45.188;5.712;2023-03-05T08:41:38;21.00;20.00;13.00
54305;PMS7003;66145;45.188;5.712;2023-03-05T08:44:04;24.00;23.33;13.00
54305;PMS7003;66145;45.188;5.712;2023-03-05T08:46:29;23.33;19.67;11.67
54305;PMS7003;66145;45.188;5.712;2023-03-05T08:48:55;23.67;23.00;14.67
54305;PMS7003;66145;45.188;5.712;2023-03-05T08:51:21;26.33;19.00;12.33
54305;PMS7003;66145;45.188;5.712;2023-03-05T08:53:51;22.00;19.50;12.25
54305;PMS7003;66145;45.188;5.712;2023-03-05T08:56:18;22.00;22.00;14.00
54305;PMS7003;66145;45.188;5.712;2023-03-05T08:58:44;24.67;23.00;14.67
54305;PMS7003;66145;45.188;5.712;2023-03-05T09:01:11;25.25;24.50;16.50
54305;PMS7003;66145;45.188;5.712;2023-03-05T09:03:38;23.50;21.50;13.75
54305;PMS7003;66145;45.188;5.712;2023-03-05T09:06:05;24.75;22.50;13.00
54305;PMS7003;66145;45.188;5.712;2023-03-05T09:08:33;23.50;22.00;15.25
54305;PMS7003;66145;45.188;5.712;2023-03-05T09:11:00;25.00;23.25;15.00
54305;PMS7003;66145;45.188;5.712;2023-03-05T09:13:26;23.00;20.00;13.75
54305;PMS7003;66145;45.188;5.712;2023-03-05T09:15:52;20.67;19.00;13.00
54305;PMS7003;66145;45.188;5.712;2023-03-05T09:18:22;23.75;22.00;15.00
54305;PMS7003;66145;45.188;5.712;2023-03-05T09:20:47;26.33;23.00;15.00
54305;PMS7003;66145;45.188;5.712;2023-03-05T09:23:13;24.67;21.33;12.67
54305;PMS7003;66145;45.188;5.712;2023-03-05T09:25:39;20.67;18.67;12.67
54305;PMS7003;66145;45.188;5.712;2023-03-05T09:28:05;28.50;27.00;16.25
54305;PMS7003;66145;45.188;5.712;2023-03-05T09:30:30;21.00;18.67;14.00
54305;PMS7003;66145;45.188;5.712;2023-03-05T09:32:55;22.33;22.33;15.67
54305;PMS7003;66145;45.188;5.712;2023-03-05T09:35:21;21.67;21.67;12.00
54305;PMS7003;66145;45.188;5.712;2023-03-05T09:37:46;21.67;19.33;13.00
54305;PMS7003;66145;45.188;5.712;2023-03-05T09:40:13;25.00;24.67;15.00
54305;PMS7003;66145;45.188;5.712;2023-03-05T09:42:49;19.25;18.25;10.25
54305;PMS7003;66145;45.188;5.712;2023-03-05T09:45:26;26.00;22.00;15.50
54305;PMS7003;66145;45.188;5.712;2023-03-05T09:50:52;26.00;24.50;16.25
54305;PMS7003;66145;45.188;5.712;2023-03-05T09:55:58;29.00;27.00;16.50
54305;PMS7003;66145;45.188;5.712;2023-03-05T09:58:40;29.25;27.50;17.00
54305;PMS7003;66145;45.188;5.712;2023-03-05T10:01:08;21.75;16.50;11.00
54305;PMS7003;66145;45.188;5.712;2023-03-05T10:14:39;28.50;27.25;17.00
54305;PMS7003;66145;45.188;5.712;2023-03-05T10:20:14;27.25;26.75;18.50
54305;PMS7003;66145;45.188;5.712;2023-03-05T10:25:49;23.75;23.75;16.75
54305;PMS7003;66145;45.188;5.712;2023-03-05T10:45:00;24.75;24.75;16.25
54305;PMS7003;66145;45.188;5.712;2023-03-05T10:47:47;31.00;30.50;17.50
54305;PMS7003;66145;45.188;5.712;2023-03-05T10:50:18;31.75;28.00;19.00
54305;PMS7003;66145;45.188;5.712;2023-03-05T10:52:50;38.75;30.50;19.50
54305;PMS7003;66145;45.188;5.712;2023-03-05T10:55:29;30.25;25.50;16.50
54305;PMS7003;66145;45.188;5.712;2023-03-05T10:57:54;29.00;29.00;18.00
54305;PMS7003;66145;45.188;5.712;2023-03-05T11:00:22;28.00;27.67;18.00
54305;PMS7003;66145;45.188;5.712;2023-03-05T11:02:59;30.25;29.50;18.25
54305;PMS7003;66145;45.188;5.712;2023-03-05T11:08:18;29.75;28.25;18.75
54305;PMS7003;66145;45.188;5.712;2023-03-05T11:11:01;30.75;27.25;17.00
54305;PMS7003;66145;45.188;5.712;2023-03-05T11:13:28;31.25;30.00;18.00
54305;PMS7003;66145;45.188;5.712;2023-03-05T11:16:00;28.50;28.50;17.25
54305;PMS7003;66145;45.188;5.712;2023-03-05T11:18:28;26.50;25.50;17.00
54305;PMS7003;66145;45.188;5.712;2023-03-05T11:24:02;34.50;29.25;17.00
54305;PMS7003;66145;45.188;5.712;2023-03-05T11:26:29;30.25;27.50;18.50
54305;PMS7003;66145;45.188;5.712;2023-03-05T11:28:56;28.00;27.00;18.33
54305;PMS7003;66145;45.188;5.712;2023-03-05T11:31:27;29.25;28.50;18.00
54305;PMS7003;66145;45.188;5.712;2023-03-05T11:34:01;29.75;28.75;16.50
54305;PMS7003;66145;45.188;5.712;2023-03-05T11:36:39;29.25;27.75;17.75
54305;PMS7003;66145;45.188;5.712;2023-03-05T11:41:36;24.75;24.25;16.50
54305;PMS7003;66145;45.188;5.712;2023-03-05T11:44:10;27.75;27.75;18.00
54305;PMS7003;66145;45.188;5.712;2023-03-05T11:46:42;31.50;29.50;18.25
54305;PMS7003;66145;45.188;5.712;2023-03-05T11:49:12;30.50;27.75;17.50
54305;PMS7003;66145;45.188;5.712;2023-03-05T11:57:13;31.25;27.75;20.00
54305;PMS7003;66145;45.188;5.712;2023-03-05T11:59:40;28.75;28.00;18.00
54305;PMS7003;66145;45.188;5.712;2023-03-05T12:02:25;33.00;29.00;17.25
54305;PMS7003;66145;45.188;5.712;2023-03-05T12:04:52;27.50;27.50;16.50
54305;PMS7003;66145;45.188;5.712;2023-03-05T12:07:18;25.00;23.33;14.00
54305;PMS7003;66145;45.188;5.712;2023-03-05T12:09:58;31.75;30.75;19.75
54305;PMS7003;66145;45.188;5.712;2023-03-05T12:12:33;29.00;28.00;19.00
54305;PMS7003;66145;45.188;5.712;2023-03-05T12:17:36;27.50;25.50;16.50
54305;PMS7003;66145;45.188;5.712;2023-03-05T12:23:17;29.00;27.75;19.00
54305;PMS7003;66145;45.188;5.712;2023-03-05T12:25:49;27.50;25.75;15.00
54305;PMS7003;66145;45.188;5.712;2023-03-05T12:28:16;27.75;24.50;16.25
54305;PMS7003;66145;45.188;5.712;2023-03-05T12:33:39;29.67;27.33;16.67
54305;PMS7003;66145;45.188;5.712;2023-03-05T12:46:37;25.75;25.75;17.00
54305;PMS7003;66145;45.188;5.712;2023-03-05T12:51:48;25.75;23.75;16.00
54305;PMS7003;66145;45.188;5.712;2023-03-05T12:54:20;26.00;22.50;14.00
54305;PMS7003;66145;45.188;5.712;2023-03-05T12:56:46;27.50;26.25;17.00
54305;PMS7003;66145;45.188;5.712;2023-03-05T12:59:12;32.33;29.00;18.00
54305;PMS7003;66145;45.188;5.712;2023-03-05T13:01:46;31.75;29.75;16.75
54305;PMS7003;66145;45.188;5.712;2023-03-05T13:04:18;26.25;25.50;16.75
54305;PMS7003;66145;45.188;5.712;2023-03-05T13:07:05;30.25;25.50;16.50
54305;PMS7003;66145;45.188;5.712;2023-03-05T13:09:38;29.50;25.25;17.75
54305;PMS7003;66145;45.188;5.712;2023-03-05T13:12:08;27.00;24.00;16.00
54305;PMS7003;66145;45.188;5.712;2023-03-05T13:14:41;25.50;25.50;15.25
54305;PMS7003;66145;45.188;5.712;2023-03-05T13:25:41;23.50;22.75;15.25
54305;PMS7003;66145;45.188;5.712;2023-03-05T13:28:14;30.25;24.50;14.75
54305;PMS7003;66145;45.188;5.712;2023-03-05T13:30:44;23.75;21.75;15.00
54305;PMS7003;66145;45.188;5.712;2023-03-05T13:33:16;24.75;22.25;13.75
54305;PMS7003;66145;45.188;5.712;2023-03-05T13:35:46;26.50;24.00;16.50
54305;PMS7003;66145;45.188;5.712;2023-03-05T13:38:34;25.67;22.67;14.67
54305;PMS7003;66145;45.188;5.712;2023-03-05T13:41:05;24.75;23.00;14.75
54305;PMS7003;66145;45.188;5.712;2023-03-05T13:43:52;24.25;22.75;14.50
54305;PMS7003;66145;45.188;5.712;2023-03-05T13:46:23;22.75;20.00;12.50
54305;PMS7003;66145;45.188;5.712;2023-03-05T13:48:50;24.25;24.25;14.25
54305;PMS7003;66145;45.188;5.712;2023-03-05T13:51:15;26.67;26.67;17.00
54305;PMS7003;66145;45.188;5.712;2023-03-05T13:53:41;21.00;21.00;15.00
54305;PMS7003;66145;45.188;5.712;2023-03-05T13:56:11;26.25;25.50;15.00
54305;PMS7003;66145;45.188;5.712;2023-03-05T14:01:28;24.00;23.75;15.25
54305;PMS7003;66145;45.188;5.712;2023-03-05T14:04:05;24.25;24.25;16.50
54305;PMS7003;66145;45.188;5.712;2023-03-05T14:06:31;25.50;25.50;17.00
54305;PMS7003;66145;45.188;5.712;2023-03-05T14:09:05;27.75;26.00;15.25
54305;PMS7003;66145;45.188;5.712;2023-03-05T14:11:41;21.00;20.50;15.25
54305;PMS7003;66145;45.188;5.712;2023-03-05T14:14:14;22.00;22.00;14.00
54305;PMS7003;66145;45.188;5.712;2023-03-05T14:16:41;25.25;25.25;15.50
54305;PMS7003;66145;45.188;5.712;2023-03-05T14:19:23;27.00;23.33;16.33
54305;PMS7003;66145;45.188;5.712;2023-03-05T14:21:55;23.75;19.50;9.75
54305;PMS7003;66145;45.188;5.712;2023-03-05T14:24:24;21.00;20.00;11.33
54305;PMS7003;66145;45.188;5.712;2023-03-05T14:27:14;22.50;20.50;13.00
54305;PMS7003;66145;45.188;5.712;2023-03-05T14:29:44;27.00;24.00;14.25
54305;PMS7003;66145;45.188;5.712;2023-03-05T14:32:44;24.50;20.00;13.25
54305;PMS7003;66145;45.188;5.712;2023-03-05T14:35:03;26.75;25.25;16.25
54305;PMS7003;66145;45.188;5.712;2023-03-05T14:37:34;26.25;24.75;15.25
54305;PMS7003;66145;45.188;5.712;2023-03-05T14:40:05;28.75;23.75;14.25
54305;PMS7003;66145;45.188;5.712;2023-03-05T14:45:12;26.67;24.67;15.00
54305;PMS7003;66145;45.188;5.712;2023-03-05T14:47:39;24.75;24.75;14.75
54305;PMS7003;66145;45.188;5.712;2023-03-05T14:50:06;27.00;23.67;15.33
54305;PMS7003;66145;45.188;5.712;2023-03-05T14:52:32;25.25;22.25;15.25
54305;PMS7003;66145;45.188;5.712;2023-03-05T14:54:59;26.25;25.50;15.00
54305;PMS7003;66145;45.188;5.712;2023-03-05T14:57:25;24.67;23.33;14.33
54305;PMS7003;66145;45.188;5.712;2023-03-05T14:59:53;23.75;21.25;14.25
54305;PMS7003;66145;45.188;5.712;2023-03-05T15:02:23;26.00;23.00;15.00
54305;PMS7003;66145;45.188;5.712;2023-03-05T15:04:50;22.50;22.25;15.75
54305;PMS7003;66145;45.188;5.712;2023-03-05T15:09:43;26.50;24.00;16.00
54305;PMS7003;66145;45.188;5.712;2023-03-05T15:12:12;26.33;25.33;17.67
54305;PMS7003;66145;45.188;5.712;2023-03-05T15:14:39;20.00;20.00;13.50
54305;PMS7003;66145;45.188;5.712;2023-03-05T15:17:08;26.75;23.25;15.75
54305;PMS7003;66145;45.188;5.712;2023-03-05T15:19:37;25.75;25.75;16.25
54305;PMS7003;66145;45.188;5.712;2023-03-05T15:22:03;21.00;21.00;15.00
54305;PMS7003;66145;45.188;5.712;2023-03-05T15:24:28;22.00;22.00;14.67